Aérodrome :
LOGIN :

S'inscrire | Disclaimer

   EN    FR    IT 

 










Légende :    VFR   VFR Marginal   IFR   IFR Intensif   IFR Très Intensif
Visi : 
Plafond : 
>= 8 km
>= 3000ft
5 à 8 km
1000 à 3000 ft
1500m à 5 km
500 à 1000 ft
800 à 1500m
200 à 500 ft
< 800m
< 200 ft
Symboles :   Orages  Brouillard  Fortes neiges  Fortes précipitations  Vent > 20 kt
SIGMETs :   Divers  Orages  Givrage  Turbulence  Onde Orograph.  Cendres Volcan.






- Altitude de l'aérodrome : 1106 ft


LFSO - Nancy / Ochey

DERNIER METAR :
  • 052000Z AUTO 20008KT 1200 1000 R20/1200D BR OVC003 M02/M02 Q1022

METARs EXPIRÉS :
  • 051930Z AUTO 22008KT 0800 R20/1000D FZFG VV/// M02/M02 Q1022
  • 051900Z AUTO 22007KT 0550 0500 R20/0600N FZFG VV/// M02/M02 Q1022
  • 051830Z AUTO 23009KT 0450 0400 R20/0450N FZFG VV/// M02/M02 Q1022
  • 051800Z AUTO 24007KT 0450 0350 R20/0400N FZFG VV/// M02/M02 Q1022
  • 051730Z AUTO 23005KT 4200 BR NSC M02/M03 Q1022

TAF TAF LFSO
Valide du 05 à 15h jusqu'au 06 à 15h UTC


051400Z 0515/0615 22005KT 7000 NSC
BECMG 0517/0519 3000 BR
BECMG 0608/0610 6000 NSW



MET'MAP, la Météo Aéronautique d'un coup d'oeil ! - Copyright ORBIFLY Décembre 2007 - Disclaimer

ORBIFLY MET'MAP TEAM :

Programmation & Développement : Alexandra Zaïnal
Sur une idée originale de : Baudouin d'Aumeries
Assistance à la programmation : Marc-Olivier Méhu
Soutien technique & logistique : Manuel Goepfert

Contact : metmap@orbifly.com




SOURCES & CREDITS :

   NOAA